createdAt,value
2022-12-01T00:02:29.450Z,8.23
2022-12-01T00:07:31.164Z,8.45
2022-12-01T00:12:32.807Z,8.57
2022-12-01T00:17:34.401Z,9.07
2022-12-01T00:22:36.043Z,9.75
2022-12-01T00:27:37.661Z,8.95
2022-12-01T00:32:39.269Z,9.23
2022-12-01T00:37:41.191Z,8.70
2022-12-01T00:42:42.784Z,6.78
2022-12-01T00:47:44.393Z,6.20
2022-12-01T00:52:46.000Z,7.13
2022-12-01T00:57:47.609Z,6.68
2022-12-01T01:02:49.264Z,6.13
2022-12-01T01:07:50.986Z,6.00
2022-12-01T01:12:52.792Z,5.82
2022-12-01T01:17:54.382Z,5.85
2022-12-01T01:22:56.007Z,5.90
2022-12-01T01:27:57.584Z,5.35
2022-12-01T01:32:59.254Z,5.97
2022-12-01T01:38:00.906Z,6.85
2022-12-01T01:43:02.486Z,7.00
2022-12-01T01:48:04.508Z,6.32
2022-12-01T01:53:10.927Z,6.95
2022-12-01T01:58:12.561Z,6.43
2022-12-01T02:03:18.395Z,6.85
2022-12-01T02:08:19.968Z,6.55
2022-12-01T02:13:36.355Z,6.30
2022-12-01T02:18:56.892Z,6.88
2022-12-01T02:24:01.332Z,6.27
2022-12-01T02:29:27.178Z,6.35
2022-12-01T02:34:43.571Z,7.28
2022-12-01T02:40:05.380Z,6.32
2022-12-01T02:45:14.850Z,7.07
2022-12-01T02:50:17.130Z,7.60
2022-12-01T02:55:18.812Z,7.28
2022-12-01T03:00:20.444Z,9.07
2022-12-01T03:05:46.446Z,9.07
2022-12-01T03:10:55.618Z,9.40
2022-12-01T03:16:15.792Z,8.50
2022-12-01T03:21:30.678Z,9.38
2022-12-01T03:26:36.424Z,10.40
2022-12-01T03:31:45.205Z,9.27
2022-12-01T03:37:05.233Z,9.52
2022-12-01T03:42:18.123Z,9.45
2022-12-01T03:47:22.799Z,9.07
2022-12-01T03:52:43.124Z,9.50
2022-12-01T03:57:56.851Z,8.98
2022-12-01T04:03:02.208Z,9.23
2022-12-01T04:08:04.096Z,11.20
2022-12-01T04:13:05.758Z,13.88
2022-12-01T04:18:07.349Z,12.10
2022-12-01T04:23:09.640Z,13.20
2022-12-01T04:28:11.228Z,15.05
2022-12-01T04:33:12.811Z,14.40
2022-12-01T04:38:14.406Z,14.02
2022-12-01T04:43:15.977Z,16.80
2022-12-01T04:48:17.603Z,17.85
2022-12-01T04:53:19.196Z,16.02
2022-12-01T04:58:20.804Z,21.65
2022-12-01T05:03:22.418Z,21.50
2022-12-01T05:08:24.048Z,26.55
2022-12-01T05:13:26.031Z,25.88
2022-12-01T05:18:27.630Z,25.08
2022-12-01T05:23:31.772Z,30.80
2022-12-01T05:28:33.425Z,28.13
2022-12-01T05:33:35.014Z,29.77
2022-12-01T05:38:36.594Z,26.35
2022-12-01T05:43:38.201Z,26.13
2022-12-01T05:48:39.783Z,29.98
2022-12-01T05:53:41.556Z,34.67
2022-12-01T05:58:43.189Z,31.35
2022-12-01T06:03:44.893Z,31.95
2022-12-01T06:08:46.519Z,29.65
2022-12-01T06:13:48.139Z,33.13
2022-12-01T06:18:49.720Z,29.58
2022-12-01T06:23:51.327Z,33.30
2022-12-01T06:28:52.934Z,30.15
2022-12-01T06:33:54.561Z,33.20
2022-12-01T06:38:56.165Z,35.15
2022-12-01T06:43:57.745Z,33.33
2022-12-01T06:48:59.357Z,34.22
2022-12-01T06:54:05.512Z,34.95
2022-12-01T06:59:07.881Z,37.17
2022-12-01T07:04:09.640Z,35.20
2022-12-01T07:09:11.322Z,39.92
2022-12-01T07:14:26.801Z,38.05
2022-12-01T07:19:28.411Z,36.55
2022-12-01T07:24:30.906Z,35.33
2022-12-01T07:29:32.544Z,37.92
2022-12-01T07:34:34.186Z,38.78
2022-12-01T07:39:35.855Z,35.45
2022-12-01T07:44:37.458Z,40.47
2022-12-01T07:49:39.094Z,36.63
2022-12-01T07:54:40.777Z,38.60
2022-12-01T07:59:42.386Z,38.35
2022-12-01T08:04:44.025Z,37.83
2022-12-01T08:09:45.823Z,37.50
2022-12-01T08:14:47.396Z,37.65
2022-12-01T08:19:49.178Z,36.92
2022-12-01T08:24:50.947Z,38.72
2022-12-01T08:29:52.538Z,39.40
2022-12-01T08:34:54.260Z,38.80
2022-12-01T08:39:55.877Z,33.42
2022-12-01T08:44:57.527Z,34.53
2022-12-01T08:49:59.153Z,38.30
2022-12-01T08:55:01.348Z,38.63
2022-12-01T09:00:03.579Z,35.97
2022-12-01T09:05:05.789Z,37.15
2022-12-01T09:10:07.949Z,37.55
2022-12-01T09:15:09.996Z,33.88
2022-12-01T09:20:12.164Z,35.50
2022-12-01T09:25:14.799Z,35.38
2022-12-01T09:30:16.516Z,31.63
2022-12-01T09:35:23.111Z,33.15
2022-12-01T09:40:48.199Z,34.28
2022-12-01T09:46:02.461Z,31.58
2022-12-01T09:51:04.253Z,31.02
2022-12-01T09:56:12.712Z,29.05
2022-12-01T10:01:21.704Z,29.33
2022-12-01T10:06:45.294Z,28.73
2022-12-01T10:11:48.505Z,28.33
2022-12-01T10:16:58.881Z,28.58
2022-12-01T10:22:36.101Z,27.90
2022-12-01T10:28:14.976Z,27.38
2022-12-01T10:33:25.269Z,27.95
2022-12-01T10:38:32.599Z,26.70
2022-12-01T10:43:45.447Z,27.30
2022-12-01T10:48:58.763Z,27.25
2022-12-01T10:54:08.337Z,26.02
2022-12-01T10:59:36.018Z,26.85
2022-12-01T11:04:47.593Z,27.00
2022-12-01T11:10:16.342Z,27.38
2022-12-01T11:15:31.320Z,27.58
2022-12-01T11:20:38.259Z,27.98
2022-12-01T11:25:39.923Z,29.63
2022-12-01T11:30:41.559Z,26.60
2022-12-01T11:35:50.494Z,25.13
2022-12-01T11:40:57.769Z,27.58
2022-12-01T11:46:06.688Z,26.60
2022-12-01T11:51:15.470Z,26.80
2022-12-01T11:56:28.648Z,25.50
2022-12-01T12:01:45.957Z,26.33
2022-12-01T12:07:05.792Z,24.95
2022-12-01T12:12:10.061Z,26.25
2022-12-01T12:17:33.354Z,25.20
2022-12-01T12:22:55.241Z,24.30
2022-12-01T12:28:10.695Z,25.02
2022-12-01T12:33:18.290Z,25.02
2022-12-01T12:38:31.973Z,25.10
2022-12-01T12:44:02.338Z,24.45
2022-12-01T12:49:25.764Z,26.02
2022-12-01T12:54:55.383Z,25.13
2022-12-01T13:00:18.828Z,25.48
2022-12-01T13:05:23.455Z,23.77
2022-12-01T13:10:26.270Z,23.50
2022-12-01T13:15:29.583Z,23.50
2022-12-01T13:20:36.815Z,21.00
2022-12-01T13:25:40.985Z,22.30
2022-12-01T13:31:00.996Z,21.40
2022-12-01T13:36:44.734Z,22.25
2022-12-01T13:41:38.788Z,19.55
2022-12-01T13:46:44.530Z,19.50
2022-12-01T13:52:16.978Z,21.13
2022-12-01T13:57:27.325Z,16.88
2022-12-01T14:02:37.258Z,19.60
2022-12-01T14:07:40.143Z,20.08
2022-12-01T14:12:45.986Z,20.42
2022-12-01T14:17:58.260Z,19.77
2022-12-01T14:23:21.438Z,20.50
2022-12-01T14:29:00.966Z,19.95
2022-12-01T14:34:08.337Z,19.95
2022-12-01T14:39:15.069Z,19.42
2022-12-01T14:44:31.318Z,19.50
2022-12-01T14:49:41.160Z,19.67
2022-12-01T14:54:48.864Z,19.35
2022-12-01T15:00:23.279Z,19.10
2022-12-01T15:05:30.398Z,19.75
2022-12-01T15:10:37.037Z,20.08
2022-12-01T15:15:50.946Z,19.63
2022-12-01T15:20:59.546Z,18.65
2022-12-01T15:26:01.211Z,20.10
2022-12-01T15:31:11.362Z,19.70
2022-12-01T15:36:13.721Z,18.80
2022-12-01T15:41:30.177Z,18.83
2022-12-01T15:46:34.588Z,17.25
2022-12-01T15:51:36.654Z,17.42
2022-12-01T15:56:41.133Z,17.92
2022-12-01T16:01:44.280Z,17.98
2022-12-01T16:07:08.154Z,17.55
2022-12-01T16:12:09.685Z,18.33
2022-12-01T16:17:11.421Z,18.85
2022-12-01T16:22:14.526Z,18.90
2022-12-01T16:27:25.685Z,19.70
2022-12-01T16:37:42.529Z,20.23
2022-12-01T16:42:44.427Z,20.17
2022-12-01T16:47:49.649Z,20.30
2022-12-01T16:52:51.239Z,20.60
2022-12-01T16:57:52.921Z,20.38
2022-12-01T17:02:54.593Z,19.02
2022-12-01T17:07:56.754Z,17.40
2022-12-01T17:12:58.984Z,17.90
2022-12-01T17:18:00.789Z,18.65
2022-12-01T17:23:02.705Z,18.73
2022-12-01T17:28:04.305Z,17.88
2022-12-01T17:33:05.912Z,18.25
2022-12-01T17:38:08.058Z,17.08
2022-12-01T17:43:09.758Z,16.88
2022-12-01T17:48:11.336Z,15.30
2022-12-01T17:53:12.991Z,16.65
2022-12-01T17:58:14.784Z,16.50
2022-12-01T18:03:16.547Z,16.42
2022-12-01T18:08:18.193Z,16.13
2022-12-01T18:13:21.337Z,16.17
2022-12-01T18:18:24.776Z,15.35
2022-12-01T18:23:27.129Z,16.13
2022-12-01T18:28:28.739Z,16.30
2022-12-01T18:33:32.594Z,16.10
2022-12-01T18:38:35.385Z,15.82
2022-12-01T18:43:37.556Z,16.35
2022-12-01T18:48:44.666Z,16.15
2022-12-01T18:53:48.052Z,17.40
2022-12-01T18:58:57.846Z,17.10
2022-12-01T19:04:00.239Z,17.20
2022-12-01T19:09:03.713Z,17.27
2022-12-01T19:14:05.338Z,17.65
2022-12-01T19:19:11.074Z,17.92
2022-12-01T19:24:15.625Z,16.75
2022-12-01T19:29:17.270Z,17.33
2022-12-01T19:34:18.998Z,17.08
2022-12-01T19:39:20.648Z,16.90
2022-12-01T19:44:22.281Z,16.83
2022-12-01T19:49:23.923Z,16.60
2022-12-01T19:54:25.546Z,17.08
2022-12-01T19:59:27.190Z,17.15
2022-12-01T20:04:28.788Z,17.20
2022-12-01T20:09:30.386Z,17.05
2022-12-01T20:14:31.958Z,18.10
2022-12-01T20:19:33.565Z,17.80
2022-12-01T20:24:39.545Z,18.40
2022-12-01T20:29:41.259Z,18.23
2022-12-01T20:34:42.986Z,19.30
2022-12-01T20:39:44.567Z,19.27
2022-12-01T20:44:46.534Z,19.02
2022-12-01T20:49:48.200Z,18.52
2022-12-01T20:54:50.244Z,18.95
2022-12-01T20:59:52.108Z,19.33
2022-12-01T21:04:57.722Z,20.20
2022-12-01T21:10:01.134Z,20.60
2022-12-01T21:15:05.648Z,20.40
2022-12-01T21:20:11.628Z,20.00
2022-12-01T21:25:18.892Z,20.40
2022-12-01T21:30:30.023Z,19.90
2022-12-01T21:35:32.028Z,19.10
2022-12-01T21:40:34.097Z,19.58
2022-12-01T21:45:35.750Z,21.02
2022-12-01T21:50:37.526Z,21.48
2022-12-01T21:55:40.639Z,21.60
2022-12-01T22:00:42.673Z,21.45
2022-12-01T22:06:07.151Z,21.85
2022-12-01T22:11:20.770Z,22.65
2022-12-01T22:16:30.077Z,21.23
2022-12-01T22:21:33.063Z,21.70
2022-12-01T22:26:37.865Z,21.60
2022-12-01T22:31:39.591Z,22.30
2022-12-01T22:36:41.633Z,22.20
2022-12-01T22:41:44.291Z,23.85
2022-12-01T22:46:45.941Z,23.83
2022-12-01T22:51:51.842Z,22.70
2022-12-01T22:57:21.149Z,21.80
2022-12-01T23:02:28.756Z,22.23
2022-12-01T23:07:36.084Z,24.15
2022-12-01T23:12:38.695Z,24.48
2022-12-01T23:17:40.729Z,24.05
2022-12-01T23:22:42.315Z,24.85
2022-12-01T23:27:49.155Z,25.45
2022-12-01T23:33:13.088Z,24.52
2022-12-01T23:38:26.191Z,24.83
2022-12-01T23:43:31.766Z,25.75
2022-12-01T23:48:37.882Z,26.20
2022-12-01T23:53:40.314Z,26.73
2022-12-01T23:58:43.794Z,26.80
